Time;durP1;ratioP1;P1;durP2;ratioP2;P2;SDS_P1;SDS_P2;PMS_P1;PMS_P2;Temp;Humidity;BMP_temperature;BMP_pressure;BME280_temperature;BME280_humidity;BME280_pressure;Samples;Min_cycle;Max_cycle;Signal;HPM_P1;HPM_P2
2021/09/15 00:02:06;;;;;;;10.63;5.53;;;20.50;76.80;;;;;;5036961;28;20576;-75
2021/09/15 00:04:31;;;;;;;8.63;5.63;;;20.40;76.90;;;;;;5054774;28;20029;-75
2021/09/15 00:06:57;;;;;;;6.60;5.03;;;20.40;76.80;;;;;;5054587;28;20136;-74
2021/09/15 00:09:22;;;;;;;7.88;5.40;;;20.40;76.70;;;;;;5054691;28;20032;-74
2021/09/15 00:11:48;;;;;;;10.20;5.25;;;20.40;76.50;;;;;;5054683;28;20036;-74
2021/09/15 00:14:14;;;;;;;7.30;5.20;;;20.40;76.30;;;;;;5054616;28;20075;-75
2021/09/15 00:16:39;;;;;;;11.95;5.20;;;20.40;76.00;;;;;;5036777;28;20072;-75
2021/09/15 00:19:05;;;;;;;10.30;4.80;;;20.40;75.90;;;;;;5054630;28;20049;-75
2021/09/15 00:21:30;;;;;;;6.65;5.13;;;20.40;75.60;;;;;;5054408;28;20493;-75
2021/09/15 00:23:56;;;;;;;7.95;5.38;;;20.40;75.10;;;;;;5054227;28;20055;-74
2021/09/15 00:26:22;;;;;;;6.97;4.90;;;20.50;75.10;;;;;;5054334;28;20060;-74
2021/09/15 00:28:47;;;;;;;6.82;4.88;;;20.50;75.10;;;;;;5054369;28;20049;-74
2021/09/15 00:31:13;;;;;;;5.88;4.50;;;20.50;75.30;;;;;;5054325;28;20029;-75
2021/09/15 00:33:38;;;;;;;8.32;5.70;;;20.50;75.50;;;;;;5054163;28;20025;-75
2021/09/15 00:36:04;;;;;;;7.13;5.10;;;20.50;75.50;;;;;;5054039;28;20037;-75
2021/09/15 00:38:29;;;;;;;5.18;4.47;;;20.50;75.50;;;;;;5053973;28;20465;-74
2021/09/15 00:40:56;;;;;;;5.63;4.43;;;20.40;74.90;;;;;;5053970;28;20172;-74
2021/09/15 00:43:22;;;;;;;5.95;4.45;;;20.50;75.00;;;;;;5054051;28;20013;-75
2021/09/15 00:45:48;;;;;;;11.63;4.82;;;20.50;74.90;;;;;;5053931;28;20485;-75
2021/09/15 00:48:13;;;;;;;15.02;4.95;;;20.50;75.20;;;;;;5036035;28;20036;-74
2021/09/15 00:50:40;;;;;;;7.63;4.80;;;20.50;75.20;;;;;;5053942;28;20461;-74
2021/09/15 00:53:07;;;;;;;9.25;5.00;;;20.40;75.30;;;;;;5053590;28;20063;-76
2021/09/15 00:55:33;;;;;;;9.43;4.88;;;20.40;75.40;;;;;;5053411;28;20033;-75
2021/09/15 00:57:58;;;;;;;7.72;5.43;;;20.40;75.40;;;;;;5053669;28;20036;-74
2021/09/15 01:00:24;;;;;;;7.55;4.88;;;20.30;75.30;;;;;;5052539;28;20021;-75
2021/09/15 01:02:50;;;;;;;8.48;4.80;;;20.30;75.20;;;;;;5062980;28;20064;-75
2021/09/15 01:05:15;;;;;;;7.97;4.65;;;20.30;75.50;;;;;;5054168;28;20108;-75
2021/09/15 01:07:42;;;;;;;8.63;4.82;;;20.20;75.70;;;;;;5035833;28;20028;-75
2021/09/15 01:10:08;;;;;;;7.28;5.03;;;20.30;76.00;;;;;;5053712;28;20013;-75
2021/09/15 01:12:35;;;;;;;12.18;5.53;;;20.30;76.10;;;;;;5053462;28;20063;-74
2021/09/15 01:15:00;;;;;;;6.07;4.30;;;20.20;76.30;;;;;;5053432;28;20029;-74
2021/09/15 01:17:26;;;;;;;7.90;5.53;;;20.20;76.70;;;;;;5035468;28;20385;-75
2021/09/15 01:19:52;;;;;;;7.28;4.57;;;20.20;76.80;;;;;;5053368;28;20021;-74
2021/09/15 01:22:18;;;;;;;8.63;4.75;;;20.10;76.50;;;;;;5053334;28;20416;-75
2021/09/15 01:24:43;;;;;;;6.28;4.55;;;20.10;76.50;;;;;;5053266;28;20021;-75
2021/09/15 01:27:09;;;;;;;5.72;4.88;;;20.10;76.50;;;;;;5053342;28;20108;-74
2021/09/15 01:29:35;;;;;;;4.95;4.55;;;20.10;76.10;;;;;;5053246;28;20021;-74
2021/09/15 01:32:06;;;;;;;6.57;3.95;;;20.10;76.00;;;;;;5053118;28;20060;-74
2021/09/15 01:34:35;;;;;;;7.28;4.50;;;20.10;75.80;;;;;;5053286;28;20573;-74
2021/09/15 01:37:02;;;;;;;5.53;4.53;;;20.20;75.50;;;;;;5052974;28;20190;-74
2021/09/15 01:39:27;;;;;;;8.10;4.60;;;20.20;75.70;;;;;;5053060;28;20469;-74
2021/09/15 01:41:59;;;;;;;8.68;4.78;;;20.20;75.80;;;;;;5052921;28;20033;-74
2021/09/15 01:44:32;;;;;;;6.18;4.30;;;20.20;75.90;;;;;;5053046;28;20033;-74
2021/09/15 01:47:00;;;;;;;6.70;3.90;;;20.20;75.80;;;;;;5052991;28;20028;-74
2021/09/15 01:49:28;;;;;;;9.43;4.85;;;20.20;75.60;;;;;;5053077;28;20028;-74
2021/09/15 01:51:53;;;;;;;4.80;4.30;;;20.20;75.50;;;;;;5052912;28;20028;-74
2021/09/15 01:54:19;;;;;;;5.75;4.53;;;20.10;75.60;;;;;;5052830;28;20053;-74
2021/09/15 01:56:44;;;;;;;8.52;4.28;;;20.20;75.60;;;;;;5052798;28;20028;-74
2021/09/15 01:59:10;;;;;;;7.90;4.70;;;20.10;75.40;;;;;;5052833;28;20037;-74
2021/09/15 02:01:35;;;;;;;5.65;5.05;;;20.10;75.20;;;;;;5052818;28;20029;-74
2021/09/15 02:04:01;;;;;;;6.15;4.20;;;20.10;75.30;;;;;;5034982;28;20070;-74
2021/09/15 02:06:26;;;;;;;6.65;5.25;;;20.10;75.60;;;;;;5056163;28;20102;-74
2021/09/15 02:08:52;;;;;;;5.88;4.80;;;20.00;75.60;;;;;;5056905;28;20104;-75
2021/09/15 02:11:18;;;;;;;7.93;4.72;;;20.00;75.80;;;;;;5056979;28;20078;-74
2021/09/15 02:13:43;;;;;;;6.38;4.47;;;20.00;76.40;;;;;;5056884;28;20025;-74
2021/09/15 02:16:09;;;;;;;6.90;4.85;;;20.00;76.40;;;;;;5056610;28;20032;-74
2021/09/15 02:18:34;;;;;;;7.53;5.40;;;19.90;76.50;;;;;;5056605;28;20040;-74
2021/09/15 02:21:00;;;;;;;7.50;4.93;;;19.80;76.80;;;;;;5038656;28;20024;-74
2021/09/15 02:23:26;;;;;;;6.50;4.88;;;19.90;76.80;;;;;;5056615;28;20155;-75
2021/09/15 02:25:51;;;;;;;7.75;5.10;;;19.90;76.80;;;;;;5056671;28;20025;-75
2021/09/15 02:28:18;;;;;;;7.40;5.10;;;19.90;76.70;;;;;;5056509;28;20025;-75
2021/09/15 02:30:43;;;;;;;6.78;4.88;;;19.80;76.80;;;;;;5056485;28;20461;-75
2021/09/15 02:33:09;;;;;;;7.65;4.53;;;19.90;77.00;;;;;;5056408;28;20036;-74
2021/09/15 02:35:34;;;;;;;9.02;5.10;;;19.80;77.00;;;;;;5056315;28;20028;-73
2021/09/15 02:38:00;;;;;;;7.25;4.68;;;19.90;77.20;;;;;;5056173;28;20036;-74
2021/09/15 02:40:25;;;;;;;6.88;4.82;;;19.80;77.10;;;;;;5056276;28;20025;-74
2021/09/15 02:42:51;;;;;;;5.70;4.53;;;19.90;77.00;;;;;;5056143;28;20044;-74
2021/09/15 02:45:16;;;;;;;8.30;4.57;;;19.80;77.40;;;;;;5056236;28;20036;-74
2021/09/15 02:47:42;;;;;;;6.03;4.38;;;19.80;77.60;;;;;;5056217;28;20029;-74
2021/09/15 02:50:08;;;;;;;9.25;4.70;;;19.80;77.00;;;;;;5056124;28;20028;-74
2021/09/15 02:52:33;;;;;;;7.93;4.88;;;19.70;77.30;;;;;;5055955;28;20041;-74
2021/09/15 02:54:59;;;;;;;5.50;4.75;;;19.70;77.50;;;;;;5038146;28;20035;-74
2021/09/15 02:57:24;;;;;;;8.55;5.20;;;19.70;77.60;;;;;;5056046;28;20033;-74
2021/09/15 02:59:50;;;;;;;6.13;5.00;;;19.70;78.30;;;;;;5056032;28;20388;-74
2021/09/15 03:02:15;;;;;;;8.52;5.10;;;19.70;77.60;;;;;;5037969;28;20469;-75
2021/09/15 03:04:41;;;;;;;5.28;4.60;;;19.70;77.80;;;;;;5055910;28;20032;-75
2021/09/15 03:07:06;;;;;;;7.75;4.95;;;19.70;78.00;;;;;;5055800;28;20465;-75
2021/09/15 03:09:32;;;;;;;7.75;4.72;;;19.70;78.20;;;;;;5055726;28;20049;-75
2021/09/15 03:11:57;;;;;;;9.82;5.25;;;19.60;78.30;;;;;;5037981;28;20067;-75
2021/09/15 03:14:23;;;;;;;6.90;5.28;;;19.60;78.40;;;;;;5055578;28;20017;-74
2021/09/15 03:16:48;;;;;;;8.43;4.38;;;19.60;78.30;;;;;;5055053;28;20040;-75
2021/09/15 03:19:14;;;;;;;7.70;4.75;;;19.60;78.20;;;;;;5055554;28;20017;-74
2021/09/15 03:21:41;;;;;;;6.22;4.97;;;19.60;78.30;;;;;;5055515;28;20029;-75
2021/09/15 03:24:07;;;;;;;8.48;4.28;;;19.60;78.20;;;;;;5055430;28;20077;-74
2021/09/15 03:26:33;;;;;;;5.85;4.68;;;19.50;78.30;;;;;;5055403;28;20138;-74
2021/09/15 03:28:58;;;;;;;5.60;4.25;;;19.50;78.50;;;;;;5055309;28;20025;-74
2021/09/15 03:31:24;;;;;;;7.85;5.22;;;19.50;79.00;;;;;;5055326;28;20064;-74
2021/09/15 03:33:49;;;;;;;6.68;5.15;;;19.40;79.20;;;;;;5055355;28;20386;-74
2021/09/15 03:36:15;;;;;;;9.25;4.80;;;19.50;79.90;;;;;;5055054;28;20397;-74
2021/09/15 03:38:40;;;;;;;10.43;5.63;;;19.40;80.10;;;;;;5055144;28;20095;-74
2021/09/15 03:41:06;;;;;;;7.25;5.15;;;19.40;80.70;;;;;;5058642;28;20040;-74
2021/09/15 03:43:31;;;;;;;6.95;4.88;;;19.30;81.10;;;;;;5058439;28;20033;-75
2021/09/15 03:45:57;;;;;;;7.20;5.32;;;19.30;81.70;;;;;;5055316;28;20027;-75
2021/09/15 03:48:22;;;;;;;9.40;5.40;;;19.30;81.80;;;;;;5054919;28;20028;-75
2021/09/15 03:50:48;;;;;;;11.63;5.90;;;19.30;81.90;;;;;;5054888;28;20021;-75
2021/09/15 03:53:13;;;;;;;6.93;4.82;;;19.20;81.80;;;;;;5054732;28;20053;-74
2021/09/15 03:55:39;;;;;;;10.18;5.40;;;19.10;82.20;;;;;;5054809;28;20025;-75
2021/09/15 03:58:04;;;;;;;8.10;5.35;;;19.10;82.60;;;;;;5036880;28;20409;-75
2021/09/15 04:00:30;;;;;;;10.27;5.30;;;19.00;82.30;;;;;;5054769;28;20469;-74
2021/09/15 04:02:56;;;;;;;8.85;5.30;;;19.10;82.70;;;;;;5054602;28;20021;-74
2021/09/15 04:05:21;;;;;;;10.82;6.18;;;19.10;82.80;;;;;;5054727;28;20025;-74
2021/09/15 04:07:47;;;;;;;8.43;5.20;;;19.10;82.80;;;;;;5054697;28;20041;-75
2021/09/15 04:10:12;;;;;;;7.00;5.25;;;19.10;82.90;;;;;;5054524;28;20025;-74
2021/09/15 04:12:38;;;;;;;9.30;4.90;;;19.10;83.20;;;;;;5054590;28;20024;-75
2021/09/15 04:15:05;;;;;;;7.80;5.32;;;19.10;83.10;;;;;;5036608;28;20021;-75
2021/09/15 04:17:30;;;;;;;11.68;5.25;;;19.10;83.20;;;;;;5054373;28;20147;-75
2021/09/15 04:19:56;;;;;;;8.95;5.15;;;19.10;83.30;;;;;;5054375;28;20525;-75
2021/09/15 04:22:21;;;;;;;12.20;5.10;;;19.10;83.50;;;;;;5054166;28;20508;-75
2021/09/15 04:32:44;;;;;;;6.53;5.10;;;19.10;84.10;;;;;;5054313;28;20040;-75
2021/09/15 04:35:10;;;;;;;8.32;5.20;;;19.10;84.20;;;;;;5053902;28;20032;-74
2021/09/15 04:37:35;;;;;;;6.30;4.65;;;19.10;84.40;;;;;;5053976;28;20029;-75
2021/09/15 04:40:01;;;;;;;7.20;5.25;;;19.00;84.40;;;;;;5053881;28;20029;-75
2021/09/15 04:42:26;;;;;;;6.97;4.60;;;19.10;84.50;;;;;;5036023;28;20025;-74
2021/09/15 04:44:52;;;;;;;6.30;4.80;;;19.10;84.50;;;;;;5053775;28;20096;-74
2021/09/15 04:47:17;;;;;;;8.60;4.80;;;19.00;84.40;;;;;;5053835;28;20052;-74
2021/09/15 04:49:43;;;;;;;7.20;4.93;;;19.10;84.40;;;;;;5053841;28;20025;-75
2021/09/15 04:52:08;;;;;;;8.73;4.35;;;19.00;84.30;;;;;;5053606;28;20083;-74
2021/09/15 04:54:34;;;;;;;8.00;4.53;;;19.10;84.50;;;;;;5053797;28;20108;-74
2021/09/15 04:56:59;;;;;;;8.20;5.07;;;19.10;84.60;;;;;;5035660;28;20048;-74
2021/09/15 04:59:25;;;;;;;7.88;4.65;;;19.00;84.70;;;;;;5053740;28;20101;-74
2021/09/15 05:01:51;;;;;;;6.53;4.50;;;19.10;85.20;;;;;;5053597;28;20071;-75
2021/09/15 05:04:16;;;;;;;11.93;5.40;;;19.00;85.20;;;;;;5053492;28;20055;-74
2021/09/15 05:06:42;;;;;;;11.02;4.97;;;19.00;85.40;;;;;;5053563;28;20029;-74
2021/09/15 05:09:07;;;;;;;9.45;5.07;;;19.00;85.80;;;;;;5053156;28;20021;-73
2021/09/15 05:11:33;;;;;;;7.80;4.68;;;19.00;85.60;;;;;;5053272;28;20043;-74
2021/09/15 05:13:58;;;;;;;8.10;5.15;;;19.00;85.60;;;;;;5053316;28;20373;-74
2021/09/15 05:16:24;;;;;;;8.13;5.15;;;19.00;85.80;;;;;;5053055;28;20469;-74
2021/09/15 05:18:49;;;;;;;7.05;5.05;;;18.90;86.00;;;;;;5052999;28;20477;-74
2021/09/15 05:21:15;;;;;;;17.40;9.23;;;18.90;86.20;;;;;;5052931;28;20037;-74
2021/09/15 05:23:40;;;;;;;12.38;6.00;;;18.90;86.40;;;;;;5052997;28;20139;-74
2021/09/15 05:26:06;;;;;;;7.60;5.20;;;18.80;86.20;;;;;;5052805;28;20029;-75
2021/09/15 05:28:31;;;;;;;8.23;4.60;;;18.90;86.20;;;;;;5052480;28;20092;-75
2021/09/15 05:30:57;;;;;;;7.40;4.15;;;18.90;86.30;;;;;;5052799;28;20353;-75
2021/09/15 05:33:23;;;;;;;10.38;4.82;;;18.90;86.30;;;;;;5034359;28;20032;-75
2021/09/15 05:35:51;;;;;;;6.55;4.47;;;19.00;86.40;;;;;;5052169;28;20041;-76
2021/09/15 05:38:18;;;;;;;8.02;5.13;;;19.00;86.70;;;;;;5052506;28;20117;-75
2021/09/15 05:40:43;;;;;;;10.32;4.93;;;19.00;86.70;;;;;;5052409;28;20051;-75
2021/09/15 05:43:09;;;;;;;9.80;4.55;;;19.00;86.70;;;;;;5052527;28;20317;-76
2021/09/15 05:45:35;;;;;;;4.85;4.03;;;19.00;86.70;;;;;;5052687;28;20476;-75
2021/09/15 05:48:00;;;;;;;10.18;4.75;;;19.00;86.70;;;;;;5052828;28;20021;-76
2021/09/15 05:50:26;;;;;;;11.63;4.82;;;19.00;86.80;;;;;;5034726;28;20028;-77
2021/09/15 05:52:51;;;;;;;8.02;5.05;;;19.00;87.10;;;;;;5052277;28;20037;-76
2021/09/15 05:55:17;;;;;;;6.63;4.50;;;18.90;87.30;;;;;;5052547;28;20036;-76
2021/09/15 05:57:42;;;;;;;7.15;4.78;;;18.90;87.30;;;;;;5052243;28;20095;-77
2021/09/15 06:00:08;;;;;;;7.65;5.15;;;18.90;87.50;;;;;;5052275;28;20025;-76
2021/09/15 06:02:34;;;;;;;6.60;4.78;;;18.90;87.40;;;;;;5052573;28;20029;-74
2021/09/15 06:05:00;;;;;;;11.02;4.88;;;18.90;87.30;;;;;;5052355;28;20481;-76
2021/09/15 06:07:25;;;;;;;6.35;5.00;;;19.00;87.30;;;;;;5034409;28;20025;-74
2021/09/15 06:09:51;;;;;;;7.15;4.78;;;19.00;87.20;;;;;;5052223;28;20036;-75
2021/09/15 06:12:16;;;;;;;10.15;5.50;;;19.00;87.20;;;;;;5052032;28;20104;-75
2021/09/15 06:14:42;;;;;;;9.75;5.82;;;19.00;87.50;;;;;;5052362;28;20025;-75
2021/09/15 06:17:07;;;;;;;13.73;6.30;;;19.00;87.60;;;;;;5052056;28;20090;-76
2021/09/15 06:19:33;;;;;;;11.90;6.35;;;19.00;88.50;;;;;;5052690;28;20017;-75
2021/09/15 06:21:59;;;;;;;10.98;5.95;;;18.90;87.80;;;;;;5052253;28;20040;-75
2021/09/15 06:24:25;;;;;;;11.43;6.22;;;18.80;87.80;;;;;;5052435;28;20029;-75
2021/09/15 06:26:52;;;;;;;12.07;6.40;;;18.80;88.00;;;;;;5052399;28;20485;-75
2021/09/15 06:29:17;;;;;;;8.32;6.22;;;18.70;87.90;;;;;;5052362;28;20052;-75
2021/09/15 06:31:43;;;;;;;12.23;6.50;;;18.80;88.00;;;;;;5052371;28;20056;-75
2021/09/15 06:34:10;;;;;;;9.45;5.75;;;18.80;88.20;;;;;;5034280;28;20452;-75
2021/09/15 06:36:37;;;;;;;10.63;5.07;;;18.80;88.30;;;;;;5051995;28;20025;-74
2021/09/15 06:39:03;;;;;;;9.15;5.50;;;18.80;88.20;;;;;;5051900;28;20118;-75
2021/09/15 06:41:28;;;;;;;11.02;6.13;;;18.80;88.10;;;;;;5052127;28;20079;-75
2021/09/15 06:43:54;;;;;;;12.20;5.85;;;18.90;88.20;;;;;;5052305;28;20035;-76
2021/09/15 06:46:19;;;;;;;12.70;6.00;;;18.90;87.80;;;;;;5052096;28;20021;-75
2021/09/15 06:48:45;;;;;;;9.93;5.95;;;18.90;87.80;;;;;;5052231;28;20465;-76
2021/09/15 06:51:11;;;;;;;10.50;6.70;;;19.00;87.70;;;;;;5052477;28;20032;-76
2021/09/15 06:53:36;;;;;;;12.60;6.25;;;18.90;87.70;;;;;;5056291;28;20053;-75
2021/09/15 06:56:02;;;;;;;9.73;5.40;;;18.90;87.90;;;;;;5056599;28;20047;-75
2021/09/15 06:58:27;;;;;;;16.30;7.50;;;18.80;88.10;;;;;;5056761;28;20455;-75
2021/09/15 07:00:53;;;;;;;10.35;6.18;;;18.80;88.10;;;;;;5056586;28;20024;-76
2021/09/15 07:03:18;;;;;;;11.27;6.00;;;18.80;88.10;;;;;;5056365;28;20025;-75
2021/09/15 07:05:44;;;;;;;9.57;5.57;;;18.70;88.40;;;;;;5055920;28;20537;-74
2021/09/15 07:08:10;;;;;;;15.35;6.38;;;18.80;88.60;;;;;;5056067;28;20032;-75
2021/09/15 07:10:37;;;;;;;11.00;5.63;;;18.80;88.60;;;;;;5055995;28;20535;-75
2021/09/15 07:13:03;;;;;;;9.05;5.18;;;18.80;88.70;;;;;;5056307;28;20070;-74
2021/09/15 07:15:29;;;;;;;10.00;5.05;;;18.80;89.00;;;;;;5056338;28;20484;-74
2021/09/15 07:17:55;;;;;;;18.00;5.90;;;18.90;89.00;;;;;;5056301;28;20063;-78
2021/09/15 07:20:21;;;;;;;17.00;5.47;;;19.00;89.30;;;;;;5056912;28;20489;-79
2021/09/15 07:22:46;;;;;;;13.90;5.63;;;19.10;89.50;;;;;;5056341;28;20029;-82
2021/09/15 07:25:13;;;;;;;16.55;5.25;;;19.20;88.50;;;;;;5056775;28;20025;-83
2021/09/15 07:27:39;;;;;;;11.88;5.28;;;19.30;88.20;;;;;;5056057;28;20021;-82
2021/09/15 07:30:05;;;;;;;10.65;5.30;;;19.40;87.90;;;;;;5056281;28;20029;-82
2021/09/15 07:32:31;;;;;;;8.13;4.55;;;19.60;86.80;;;;;;5055488;28;20079;-81
2021/09/15 07:34:57;;;;;;;10.38;4.97;;;19.70;86.10;;;;;;5055709;28;20492;-82
2021/09/15 07:37:22;;;;;;;8.02;4.72;;;19.80;85.70;;;;;;5037617;28;20127;-81
2021/09/15 07:39:48;;;;;;;9.57;4.78;;;19.90;85.50;;;;;;5055943;28;20029;-81
2021/09/15 07:42:13;;;;;;;7.38;4.07;;;19.90;85.10;;;;;;5056304;28;20044;-79
2021/09/15 07:44:39;;;;;;;8.82;4.95;;;20.00;84.80;;;;;;5055045;28;20032;-81
2021/09/15 07:47:05;;;;;;;8.73;4.82;;;20.10;84.10;;;;;;5037022;28;20025;-80
2021/09/15 07:49:31;;;;;;;5.95;3.47;;;20.30;83.80;;;;;;5054742;28;20401;-79
2021/09/15 07:51:56;;;;;;;9.57;4.80;;;20.30;83.50;;;;;;5054801;28;20098;-79
2021/09/15 07:54:22;;;;;;;9.60;4.03;;;20.40;82.70;;;;;;5054589;28;20045;-79
2021/09/15 07:56:48;;;;;;;7.68;4.10;;;20.50;82.20;;;;;;5054761;28;20495;-81
2021/09/15 07:59:13;;;;;;;8.73;4.15;;;20.60;81.80;;;;;;5036640;28;20028;-82
2021/09/15 08:01:39;;;;;;;8.52;4.40;;;20.60;81.50;;;;;;5054684;28;20021;-77
2021/09/15 08:04:04;;;;;;;6.93;3.80;;;20.70;81.10;;;;;;5054707;28;20029;-79
2021/09/15 08:06:30;;;;;;;8.65;4.60;;;20.60;81.10;;;;;;5055479;28;20087;-84
2021/09/15 08:08:56;;;;;;;6.22;3.70;;;20.60;80.90;;;;;;5054884;28;20045;-79
2021/09/15 08:11:22;;;;;;;11.25;4.28;;;20.60;80.80;;;;;;5055258;28;20083;-75
2021/09/15 08:13:48;;;;;;;9.45;3.92;;;20.50;81.00;;;;;;5054207;28;20029;-77
2021/09/15 08:16:13;;;;;;;10.40;4.05;;;20.40;81.70;;;;;;5054337;28;20029;-76
2021/09/15 08:18:39;;;;;;;7.05;3.95;;;20.20;82.30;;;;;;5054651;28;20388;-78
2021/09/15 08:21:06;;;;;;;8.00;4.38;;;20.20;82.60;;;;;;5053990;28;20021;-74
2021/09/15 08:23:32;;;;;;;7.15;4.28;;;20.10;83.00;;;;;;5054218;28;20063;-74
2021/09/15 08:25:58;;;;;;;11.30;4.43;;;20.10;83.00;;;;;;5054092;28;20025;-75
2021/09/15 08:28:23;;;;;;;7.53;3.92;;;20.00;83.00;;;;;;5054017;28;20458;-74
2021/09/15 08:30:49;;;;;;;5.57;4.00;;;20.10;82.90;;;;;;5053921;28;20036;-74
2021/09/15 08:33:15;;;;;;;6.20;3.67;;;20.10;82.80;;;;;;5053828;28;20036;-75
2021/09/15 08:35:41;;;;;;;6.25;4.13;;;20.20;82.70;;;;;;5053906;28;20393;-75
2021/09/15 08:38:10;;;;;;;6.45;4.03;;;20.20;82.70;;;;;;5053743;28;20025;-75
2021/09/15 08:40:37;;;;;;;8.65;4.32;;;20.20;83.00;;;;;;5035948;28;20029;-74
2021/09/15 08:43:03;;;;;;;7.15;3.83;;;20.20;83.50;;;;;;5053476;28;20036;-74
2021/09/15 08:45:28;;;;;;;7.00;4.40;;;20.20;84.00;;;;;;5053569;28;20437;-75
2021/09/15 08:47:56;;;;;;;5.35;3.78;;;20.20;84.20;;;;;;5053609;28;20472;-75
2021/09/15 08:50:22;;;;;;;5.85;3.95;;;20.20;84.30;;;;;;5053416;28;20109;-74
2021/09/15 08:52:48;;;;;;;9.90;4.95;;;20.20;84.30;;;;;;5052842;28;20037;-75
2021/09/15 08:55:14;;;;;;;9.02;4.63;;;20.20;84.40;;;;;;5053410;28;20025;-75
2021/09/15 08:57:40;;;;;;;7.07;4.65;;;20.00;84.60;;;;;;5035420;28;20086;-74
2021/09/15 09:00:08;;;;;;;9.27;5.32;;;19.90;84.60;;;;;;5053212;28;20021;-75
2021/09/15 09:02:38;;;;;;;13.95;5.45;;;19.90;85.20;;;;;;5053287;28;20021;-76
2021/09/15 09:05:04;;;;;;;11.35;5.57;;;19.80;86.10;;;;;;5052929;28;20052;-76
2021/09/15 09:07:31;;;;;;;14.88;6.22;;;19.70;86.30;;;;;;5053026;28;20029;-77
2021/09/15 09:10:00;;;;;;;11.40;5.65;;;19.60;87.80;;;;;;5052713;28;20025;-77
2021/09/15 09:12:28;;;;;;;9.43;5.47;;;19.50;88.20;;;;;;5052817;28;20493;-76
2021/09/15 09:15:30;;;;;;;7.03;4.47;;;19.50;88.60;;;;;;5052176;28;20071;-75
2021/09/15 09:18:00;;;;;;;9.48;5.32;;;19.50;88.60;;;;;;5052255;28;20037;-76
2021/09/15 09:20:32;;;;;;;11.23;6.18;;;19.60;88.30;;;;;;5053201;28;20315;-77
2021/09/15 09:23:05;;;;;;;9.68;6.03;;;19.60;89.10;;;;;;5052940;28;20013;-78
2021/09/15 09:25:46;;;;;;;11.32;5.90;;;19.60;88.60;;;;;;5052780;28;20082;-76
2021/09/15 09:28:22;;;;;;;8.30;5.60;;;19.70;88.60;;;;;;5052631;28;20040;-75
2021/09/15 09:30:50;;;;;;;10.50;6.13;;;19.80;88.30;;;;;;5034734;28;20017;-76
2021/09/15 09:33:16;;;;;;;9.10;6.13;;;19.90;88.40;;;;;;5052714;28;20036;-76
2021/09/15 09:35:53;;;;;;;9.93;6.72;;;19.90;87.80;;;;;;5052592;28;20155;-76
2021/09/15 09:38:19;;;;;;;11.82;6.80;;;19.90;87.60;;;;;;5052496;28;20025;-75
2021/09/15 09:40:55;;;;;;;9.02;5.88;;;20.00;87.50;;;;;;5052317;28;20094;-76
2021/09/15 09:43:20;;;;;;;14.23;7.07;;;20.00;87.20;;;;;;5052558;28;20064;-77
2021/09/15 09:45:47;;;;;;;11.57;7.30;;;20.00;86.90;;;;;;5052588;28;20017;-76
2021/09/15 09:48:37;;;;;;;12.65;6.75;;;20.00;86.60;;;;;;5052626;28;20096;-76
2021/09/15 09:51:20;;;;;;;13.45;7.03;;;19.90;86.70;;;;;;5052515;28;20040;-76
2021/09/15 09:53:46;;;;;;;13.93;7.68;;;19.90;87.10;;;;;;5052401;28;20139;-76
2021/09/15 09:56:12;;;;;;;12.88;6.28;;;19.80;87.80;;;;;;5034421;28;20485;-76
2021/09/15 09:58:46;;;;;;;11.80;7.00;;;19.90;87.70;;;;;;5052429;28;20025;-76
2021/09/15 10:01:16;;;;;;;7.57;4.72;;;20.00;87.00;;;;;;5052259;28;20565;-76
2021/09/15 10:03:44;;;;;;;8.55;4.35;;;20.00;84.00;;;;;;5051756;28;20103;-76
2021/09/15 10:06:10;;;;;;;6.90;3.83;;;20.00;83.70;;;;;;5052004;28;20021;-76
2021/09/15 10:08:37;;;;;;;5.85;4.25;;;20.00;81.10;;;;;;5033831;28;20029;-76
2021/09/15 10:11:03;;;;;;;5.53;3.83;;;20.10;80.70;;;;;;5051848;28;20377;-75
2021/09/15 10:13:28;;;;;;;7.10;3.67;;;20.10;78.90;;;;;;5052013;28;20025;-77
2021/09/15 10:16:03;;;;;;;7.00;3.58;;;20.10;79.50;;;;;;5052178;28;20393;-77
2021/09/15 10:18:28;;;;;;;5.90;3.42;;;20.10;78.40;;;;;;5052418;28;20036;-76
2021/09/15 10:20:57;;;;;;;9.05;4.00;;;20.10;79.50;;;;;;5034072;28;20021;-76
2021/09/15 10:23:48;;;;;;;4.68;3.60;;;20.30;78.30;;;;;;5052248;28;20045;-77
2021/09/15 10:26:27;;;;;;;6.90;3.97;;;20.40;78.50;;;;;;5052083;28;20044;-76
2021/09/15 10:29:16;;;;;;;6.80;4.32;;;20.30;77.30;;;;;;5056051;28;20400;-77
2021/09/15 10:31:58;;;;;;;10.43;4.03;;;20.40;76.80;;;;;;5055588;28;20021;-77
2021/09/15 10:34:39;;;;;;;4.78;3.50;;;20.30;76.90;;;;;;5037923;28;20021;-75
2021/09/15 10:37:13;;;;;;;6.78;3.70;;;20.20;76.90;;;;;;5055650;28;20064;-75
2021/09/15 10:39:55;;;;;;;7.07;4.32;;;20.20;77.60;;;;;;5056083;28;20032;-76
2021/09/15 10:42:36;;;;;;;6.07;3.75;;;20.10;78.30;;;;;;5055630;28;20049;-76
2021/09/15 10:45:10;;;;;;;8.15;3.88;;;20.10;79.20;;;;;;5055760;28;20033;-76
2021/09/15 10:47:37;;;;;;;7.72;3.83;;;20.10;78.10;;;;;;5055425;28;20025;-75
2021/09/15 10:50:04;;;;;;;9.20;3.90;;;20.20;77.80;;;;;;5055010;28;20499;-76
2021/09/15 10:52:34;;;;;;;6.55;3.78;;;20.20;77.60;;;;;;5054463;28;20048;-76
2021/09/15 10:55:00;;;;;;;6.13;3.60;;;20.20;78.10;;;;;;5037032;28;20029;-76
2021/09/15 10:57:33;;;;;;;5.55;3.50;;;20.30;76.10;;;;;;5054945;28;20472;-75
2021/09/15 11:00:21;;;;;;;5.15;3.45;;;20.20;76.40;;;;;;5037317;28;20028;-76
2021/09/15 11:02:49;;;;;;;4.38;3.10;;;20.10;76.10;;;;;;5055973;28;20486;-76
2021/09/15 11:05:27;;;;;;;7.53;3.63;;;20.10;74.30;;;;;;5037533;28;20082;-76
2021/09/15 11:07:57;;;;;;;5.20;3.35;;;20.00;75.00;;;;;;5057014;28;20017;-76
2021/09/15 11:10:34;;;;;;;5.80;3.50;;;20.00;74.90;;;;;;5055408;28;20377;-75
2021/09/15 11:13:03;;;;;;;6.57;3.70;;;20.00;75.20;;;;;;5055143;28;20078;-76
2021/09/15 11:15:35;;;;;;;6.18;3.13;;;20.00;75.80;;;;;;5055091;28;20025;-75
2021/09/15 11:18:01;;;;;;;7.25;4.07;;;20.10;75.70;;;;;;5054717;28;20048;-75
2021/09/15 11:20:30;;;;;;;3.22;2.70;;;20.20;75.00;;;;;;5054903;28;20047;-76
2021/09/15 11:22:56;;;;;;;4.68;2.72;;;20.40;74.80;;;;;;5055144;28;20029;-76
2021/09/15 11:25:25;;;;;;;6.70;3.08;;;20.50;74.90;;;;;;5054987;28;20162;-75
2021/09/15 11:28:11;;;;;;;5.05;2.97;;;20.80;74.90;;;;;;5054979;28;20399;-74
2021/09/15 11:30:56;;;;;;;5.25;3.17;;;21.00;74.60;;;;;;5054886;28;20029;-75
2021/09/15 11:33:32;;;;;;;2.92;2.63;;;21.30;74.00;;;;;;5054732;28;20018;-75
2021/09/15 11:36:01;;;;;;;7.32;3.80;;;21.50;72.40;;;;;;5054740;28;20025;-76
2021/09/15 11:38:28;;;;;;;4.05;3.03;;;21.70;70.70;;;;;;5054495;28;20032;-75
2021/09/15 11:41:14;;;;;;;3.78;2.70;;;21.80;70.50;;;;;;5036868;28;20059;-75
2021/09/15 11:43:45;;;;;;;7.85;2.95;;;21.70;69.20;;;;;;5054858;28;20029;-75
2021/09/15 11:46:11;;;;;;;6.60;2.92;;;21.70;67.60;;;;;;5054630;28;20021;-76
2021/09/15 11:48:38;;;;;;;8.27;3.30;;;21.60;67.10;;;;;;5054474;28;20021;-75
2021/09/15 11:51:21;;;;;;;7.70;3.53;;;21.60;67.30;;;;;;5054687;28;20036;-75
2021/09/15 11:54:02;;;;;;;6.05;3.00;;;21.30;68.00;;;;;;5036733;28;20045;-76
2021/09/15 11:56:32;;;;;;;7.95;2.83;;;21.10;70.30;;;;;;5054526;28;20017;-76
2021/09/15 11:58:59;;;;;;;5.40;3.28;;;21.10;69.40;;;;;;5054146;28;20355;-76
2021/09/15 12:01:27;;;;;;;4.40;2.80;;;21.10;69.40;;;;;;5054472;28;20013;-75
2021/09/15 12:03:55;;;;;;;7.57;3.00;;;21.10;68.90;;;;;;5054416;28;20471;-76
2021/09/15 12:06:21;;;;;;;7.90;3.40;;;20.90;70.30;;;;;;5036380;28;20392;-76
2021/09/15 12:08:47;;;;;;;5.47;3.30;;;20.60;72.10;;;;;;5054444;28;20021;-76
2021/09/15 12:11:14;;;;;;;5.13;3.05;;;20.70;72.90;;;;;;5054149;28;20021;-75
2021/09/15 12:13:39;;;;;;;4.10;2.88;;;20.70;72.70;;;;;;5054064;28;20036;-75
2021/09/15 12:16:05;;;;;;;5.95;3.38;;;20.80;73.00;;;;;;5053932;28;20025;-75
2021/09/15 12:18:41;;;;;;;6.15;3.28;;;20.90;74.30;;;;;;5053981;28;20029;-76
2021/09/15 12:21:17;;;;;;;5.88;3.15;;;21.10;72.20;;;;;;5054108;28;20104;-75
2021/09/15 12:23:44;;;;;;;4.50;3.40;;;21.30;70.50;;;;;;5053701;28;20032;-76
2021/09/15 12:26:10;;;;;;;4.43;2.70;;;21.60;69.60;;;;;;5053814;28;20052;-76
2021/09/15 12:28:35;;;;;;;5.45;2.97;;;21.80;68.30;;;;;;5053799;28;20021;-76
2021/09/15 12:31:04;;;;;;;6.43;3.38;;;22.00;67.00;;;;;;5053539;28;20083;-76
2021/09/15 12:33:30;;;;;;;5.55;2.92;;;22.00;64.80;;;;;;5053626;28;20508;-76
2021/09/15 12:36:16;;;;;;;10.15;2.95;;;22.20;65.70;;;;;;5053806;28;20029;-76
2021/09/15 12:38:48;;;;;;;26.90;17.13;;;22.40;65.00;;;;;;5053764;28;20569;-75
2021/09/15 12:41:13;;;;;;;7.63;3.70;;;22.70;63.30;;;;;;5053599;28;20029;-74
2021/09/15 12:43:39;;;;;;;7.13;3.05;;;22.90;58.80;;;;;;5053600;28;20481;-75
2021/09/15 12:46:22;;;;;;;12.68;3.58;;;22.90;60.00;;;;;;5053356;28;20530;-75
2021/09/15 12:48:47;;;;;;;9.07;3.50;;;22.80;58.60;;;;;;5053210;28;20035;-75
2021/09/15 12:51:18;;;;;;;6.78;3.97;;;22.60;58.90;;;;;;5034709;28;20116;-75
2021/09/15 12:53:45;;;;;;;9.38;4.28;;;22.40;60.10;;;;;;5053545;28;20045;-74
2021/09/15 12:56:10;;;;;;;12.88;5.10;;;22.20;61.50;;;;;;5053311;28;20090;-75